createdAt,value
2022-12-28T00:00:03.157Z,101221.70
2022-12-28T00:14:54.069Z,101213.39
2022-12-28T00:29:43.746Z,101187.16
2022-12-28T00:44:33.980Z,101170.14
2022-12-28T00:59:24.501Z,101152.69
2022-12-28T01:14:16.082Z,101113.81
2022-12-28T01:29:06.725Z,101108.53
2022-12-28T01:43:58.051Z,101092.76
2022-12-28T02:13:39.907Z,101019.63
2022-12-28T02:29:08.004Z,101023.05
2022-12-28T02:44:04.103Z,101005.89
2022-12-28T02:59:24.798Z,100975.17
2022-12-28T03:14:27.561Z,100960.69
2022-12-28T03:29:41.286Z,100951.85
2022-12-28T03:44:37.978Z,100935.06
2022-12-28T03:59:29.632Z,100907.81
2022-12-28T04:29:11.111Z,100905.14
2022-12-28T04:44:01.735Z,100870.59
2022-12-28T05:28:46.553Z,100851.06
2022-12-28T05:43:38.918Z,100827.88
2022-12-28T05:58:30.759Z,100812.97
2022-12-28T06:13:21.388Z,100804.33
2022-12-28T06:28:12.352Z,100797.11
2022-12-28T06:43:02.141Z,100783.00
2022-12-28T06:57:53.308Z,100774.20
2022-12-28T07:12:44.097Z,100774.89
2022-12-28T07:27:35.116Z,100757.06
2022-12-28T07:42:26.376Z,100750.61
2022-12-28T07:57:18.077Z,100747.31
2022-12-28T08:12:08.656Z,100741.38
2022-12-28T08:26:59.167Z,100741.01
2022-12-28T08:41:49.884Z,100726.95
2022-12-28T08:56:41.564Z,100727.79
2022-12-28T09:11:32.449Z,100718.09
2022-12-28T09:26:23.979Z,100731.73
2022-12-28T09:41:30.825Z,100720.55
2022-12-28T09:56:35.633Z,100728.50
2022-12-28T10:11:33.756Z,100714.33
2022-12-28T10:26:28.789Z,100690.07
2022-12-28T10:41:20.355Z,100675.44
2022-12-28T10:56:13.789Z,100646.91
2022-12-28T11:11:07.037Z,100620.78
2022-12-28T11:25:57.896Z,100600.23
2022-12-28T11:40:49.410Z,100574.00
2022-12-28T11:55:43.212Z,100547.00
2022-12-28T12:10:36.911Z,100533.55
2022-12-28T12:25:35.359Z,100502.11
2022-12-28T12:40:55.232Z,100494.19
2022-12-28T12:56:10.546Z,100468.66
2022-12-28T13:11:08.893Z,100432.84
2022-12-28T13:41:22.851Z,100400.83
2022-12-28T13:56:17.844Z,100383.56
2022-12-28T14:11:09.991Z,100366.22
2022-12-28T14:25:59.487Z,100350.26
2022-12-28T14:40:52.364Z,100328.84
2022-12-28T14:55:54.058Z,100313.89
2022-12-28T15:10:49.028Z,100306.39
2022-12-28T15:25:38.961Z,100291.42
2022-12-28T15:55:33.587Z,100265.47
2022-12-28T16:10:24.138Z,100250.98
2022-12-28T16:25:15.108Z,100246.27
2022-12-28T16:40:05.984Z,100251.86
2022-12-28T16:54:57.819Z,100224.22
2022-12-28T17:09:50.394Z,100204.45
2022-12-28T17:24:40.208Z,100195.70
2022-12-28T17:39:39.387Z,100187.06
2022-12-28T17:54:22.902Z,100165.70
2022-12-28T18:09:27.852Z,100126.95
2022-12-28T18:24:15.897Z,100105.67
2022-12-28T18:39:12.598Z,100069.19
2022-12-28T18:54:08.738Z,100049.41
2022-12-28T19:09:01.233Z,100055.35
2022-12-28T19:38:42.750Z,100038.13
2022-12-28T19:53:33.473Z,100018.50
2022-12-28T20:08:25.065Z,99990.28
2022-12-28T20:23:16.580Z,99976.53
2022-12-28T20:38:07.033Z,99961.16
2022-12-28T20:52:58.867Z,99959.09
2022-12-28T21:07:48.800Z,99938.53
2022-12-28T21:22:38.836Z,99915.97
2022-12-28T21:37:35.661Z,99902.50
2022-12-28T21:52:31.411Z,99911.44
2022-12-28T22:07:22.124Z,99910.52
2022-12-28T22:22:13.081Z,99884.97
2022-12-28T22:37:04.254Z,99883.89
2022-12-28T22:51:56.308Z,99882.47
2022-12-28T23:06:46.903Z,99880.58
2022-12-28T23:21:55.652Z,99881.06
2022-12-28T23:36:49.992Z,99861.27
2022-12-28T23:51:40.957Z,99840.09
